Archiv-/Tagesdaten

--Timestamp---	Temp	Chill	HIndex	Humid	Dewpt	 Wind 	HiWind	WindDir	Rain 	Barom	Solar	 ET  	 UV 
--------------	----	-----	------	-----	-----	------	------	-------	-----	-----	-----	-----	----
20110904 00:00	17.3	17.3	17.3	85	14.7	0	2	68	0.0	1009.4	0	0.025	0.0
20110904 00:05	17.3	17.3	17.3	85	14.7	0	2	68	0.0	1009.5	0	0.000	0.0
20110904 00:10	17.2	17.2	17.2	85	14.7	0	0	-100000	0.0	1009.6	0	0.000	0.0
20110904 00:15	17.2	17.2	17.2	85	14.6	0	0	-100000	0.0	1009.6	0	0.000	0.0
20110904 00:20	17.0	17.0	17.0	85	14.5	0	0	-100000	0.0	1009.6	0	0.000	0.0
20110904 00:25	16.9	16.9	16.9	86	14.5	0	0	-100000	0.0	1009.6	0	0.000	0.0
20110904 00:30	16.8	16.8	16.8	86	14.4	0	0	-100000	0.0	1009.6	0	0.000	0.0
20110904 00:35	16.7	16.7	16.7	86	14.3	0	0	-100000	0.0	1009.6	0	0.000	0.0
20110904 00:40	16.6	16.6	16.6	86	14.3	0	0	-100000	0.0	1009.7	0	0.000	0.0
20110904 00:45	16.6	16.6	16.6	87	14.4	0	0	-100000	0.0	1009.6	0	0.000	0.0
20110904 00:50	16.5	16.5	16.5	87	14.3	0	0	-100000	0.0	1009.6	0	0.000	0.0
20110904 00:55	16.5	16.5	16.5	87	14.3	0	0	-100000	0.0	1009.7	0	0.000	0.0
20110904 01:00	16.6	16.6	16.6	87	14.4	0	2	68	0.0	1009.8	0	0.000	0.0
20110904 01:05	16.6	16.6	16.6	87	14.4	0	2	68	0.0	1009.7	0	0.000	0.0
20110904 01:10	16.7	16.7	16.7	87	14.5	0	0	-100000	0.0	1009.6	0	0.000	0.0
20110904 01:15	16.7	16.7	16.7	87	14.5	0	0	-100000	0.0	1009.6	0	0.000	0.0
20110904 01:20	16.7	16.7	16.7	87	14.5	0	0	-100000	0.0	1009.6	0	0.000	0.0
20110904 01:25	16.7	16.7	16.7	87	14.5	0	0	-100000	0.0	1009.6	0	0.000	0.0
20110904 01:30	16.6	16.6	16.6	88	14.6	0	2	68	0.0	1009.7	0	0.000	0.0
20110904 01:35	16.7	16.7	16.7	88	14.7	3	6	68	0.0	1009.8	0	0.000	0.0
20110904 01:40	16.6	16.6	16.6	88	14.6	2	6	180	0.0	1009.8	0	0.000	0.0
20110904 01:45	16.6	16.6	16.6	88	14.6	2	6	180	0.0	1009.9	0	0.000	0.0
20110904 01:50	16.6	16.6	16.6	88	14.6	0	2	180	0.0	1009.9	0	0.000	0.0
20110904 01:55	16.7	16.7	16.7	88	14.7	0	5	180	0.0	1010.0	0	0.000	0.0
20110904 02:00	16.7	16.7	16.7	88	14.7	3	11	180	0.0	1010.2	0	0.000	0.0
20110904 02:05	16.7	16.7	16.7	88	14.7	5	11	248	0.0	1010.4	0	0.000	0.0
20110904 02:10	16.7	16.7	16.7	88	14.7	0	5	248	0.0	1010.2	0	0.000	0.0
20110904 02:15	16.7	16.7	16.7	88	14.7	0	2	248	0.0	1010.1	0	0.000	0.0
20110904 02:20	16.7	16.7	16.7	88	14.7	0	0	-100000	0.0	1010.0	0	0.000	0.0
20110904 02:25	16.8	16.8	16.8	88	14.8	0	2	248	0.0	1009.8	0	0.000	0.0
20110904 02:30	16.8	16.8	16.8	88	14.8	0	3	248	0.0	1009.7	0	0.000	0.0
20110904 02:35	16.8	16.8	16.8	88	14.8	3	6	248	0.0	1009.4	0	0.000	0.0
20110904 02:40	16.8	16.8	16.8	88	14.8	5	6	45	0.0	1009.2	0	0.000	0.0
20110904 02:45	16.8	16.8	16.8	88	14.8	6	10	22	0.0	1009.1	0	0.000	0.0
20110904 02:50	16.8	16.8	16.8	89	15.0	5	10	45	0.0	1009.2	0	0.000	0.0
20110904 02:55	16.9	16.9	16.9	89	15.1	3	6	45	0.0	1009.3	0	0.000	0.0
20110904 03:00	16.9	16.9	16.9	89	15.1	0	3	90	0.0	1009.5	0	0.000	0.0
20110904 03:05	17.0	17.0	17.0	89	15.2	0	2	90	0.0	1009.2	0	0.000	0.0
20110904 03:10	16.9	16.9	16.9	89	15.1	11	26	225	0.0	1009.9	0	0.000	0.0
20110904 03:15	17.1	17.1	17.1	89	15.2	8	16	225	0.0	1009.8	0	0.000	0.0
20110904 03:20	17.1	17.1	17.1	89	15.3	8	14	225	0.0	1009.8	0	0.000	0.0
20110904 03:25	17.2	17.2	17.2	89	15.4	3	8	248	0.0	1009.8	0	0.000	0.0
20110904 03:30	17.3	17.3	17.3	89	15.4	2	5	225	0.0	1009.7	0	0.000	0.0
20110904 03:35	17.3	17.3	17.3	89	15.5	0	2	225	0.0	1009.6	0	0.000	0.0
20110904 03:40	17.3	17.3	17.3	89	15.5	0	0	-100000	0.0	1009.5	0	0.000	0.0
20110904 03:45	17.3	17.3	17.3	89	15.5	0	0	-100000	0.0	1009.5	0	0.000	0.0
20110904 03:50	17.3	17.3	17.3	89	15.5	0	0	-100000	0.0	1009.3	0	0.000	0.0
20110904 03:55	17.3	17.3	17.3	89	15.5	0	2	225	0.0	1009.3	0	0.000	0.0
20110904 04:00	17.3	17.3	17.3	89	15.5	0	3	225	0.0	1009.6	0	0.000	0.0
20110904 04:05	17.3	17.3	17.3	89	15.4	3	8	225	0.0	1009.9	0	0.000	0.0
20110904 04:10	17.3	17.3	17.3	89	15.5	3	8	225	0.0	1010.1	0	0.000	0.0
20110904 04:15	17.3	17.3	17.3	89	15.4	5	10	248	0.0	1010.0	0	0.000	0.0
20110904 04:20	17.3	17.3	17.3	90	15.6	3	8	292	0.0	1009.8	0	0.000	0.0
20110904 04:25	17.3	17.3	17.3	89	15.5	2	6	292	0.0	1009.8	0	0.000	0.0
20110904 04:30	17.3	17.3	17.3	90	15.6	0	3	292	0.0	1009.7	0	0.000	0.0
20110904 04:35	17.2	17.2	17.2	89	15.4	0	0	-100000	0.0	1009.7	0	0.000	0.0
20110904 04:40	17.2	17.2	17.2	89	15.4	0	0	-100000	0.0	1009.7	0	0.000	0.0
20110904 04:45	17.2	17.2	17.2	90	15.5	0	0	-100000	0.0	1009.7	0	0.000	0.0
20110904 04:50	17.2	17.2	17.2	90	15.5	0	2	292	0.0	1009.7	0	0.000	0.0
20110904 04:55	17.2	17.2	17.2	90	15.6	2	5	292	0.0	1009.7	0	0.000	0.0
20110904 05:00	17.2	17.2	17.2	90	15.5	0	2	292	0.0	1009.6	0	0.000	0.0
20110904 05:05	17.1	17.1	17.1	90	15.5	0	0	-100000	0.0	1009.6	0	0.000	0.0
20110904 05:10	17.1	17.1	17.1	90	15.4	0	0	-100000	0.0	1010.0	0	0.000	0.0
20110904 05:15	17.1	17.1	17.1	90	15.4	2	6	292	0.0	1010.2	0	0.000	0.0
20110904 05:20	16.9	16.9	16.9	90	15.3	5	8	225	0.0	1010.2	0	0.000	0.0
20110904 05:25	16.9	16.9	16.9	90	15.2	2	6	225	0.0	1010.2	0	0.000	0.0
20110904 05:30	16.8	16.8	16.8	90	15.2	0	2	225	0.0	1010.3	0	0.000	0.0
20110904 05:35	16.8	16.8	16.8	90	15.2	0	2	225	0.0	1010.2	0	0.000	0.0
20110904 05:40	16.8	16.8	16.8	90	15.2	0	2	225	0.0	1010.2	0	0.000	0.0
20110904 05:45	16.9	16.9	16.9	90	15.2	0	0	-100000	0.0	1010.3	0	0.000	0.0
20110904 05:50	16.9	16.9	16.9	90	15.3	0	0	-100000	0.0	1010.3	0	0.000	0.0
20110904 05:55	16.9	16.9	16.9	90	15.3	0	2	225	0.0	1010.3	0	0.000	0.0
20110904 06:00	17.0	17.0	17.0	90	15.3	0	0	-100000	0.0	1010.2	0	0.000	0.0
20110904 06:05	17.0	17.0	17.0	90	15.3	0	2	225	0.0	1010.1	0	0.000	0.0
20110904 06:10	17.0	17.0	17.0	90	15.3	0	0	-100000	0.0	1010.1	0	0.000	0.0
20110904 06:15	16.9	16.9	16.9	90	15.3	2	5	225	0.0	1010.2	0	0.000	0.0
20110904 06:20	16.9	16.9	16.9	90	15.3	0	0	-100000	0.0	1010.2	0	0.000	0.0
20110904 06:25	16.8	16.8	16.8	90	15.2	0	0	-100000	0.0	1010.3	0	0.000	0.0
20110904 06:30	16.8	16.8	16.8	90	15.1	0	2	225	0.0	1010.4	0	0.000	0.0
20110904 06:35	16.8	16.8	16.8	90	15.1	2	5	225	0.0	1010.5	0	0.000	0.0
20110904 06:40	16.8	16.8	16.8	90	15.1	0	6	270	0.0	1010.5	5	0.000	0.0
20110904 06:45	16.7	16.7	16.7	90	15.1	2	8	202	0.0	1010.5	9	0.000	0.0
20110904 06:50	16.7	16.7	16.7	90	15.1	0	2	202	0.0	1010.6	14	0.000	0.0
20110904 06:55	16.7	16.7	16.7	91	15.2	0	2	202	0.0	1010.5	21	0.000	0.0
20110904 07:00	16.7	16.7	16.7	91	15.2	0	2	202	0.0	1010.3	26	0.000	0.0
20110904 07:05	16.8	16.8	16.8	91	15.3	3	6	202	0.0	1010.7	29	0.000	0.0
20110904 07:10	16.9	16.9	16.9	91	15.4	3	6	202	0.0	1010.7	30	0.000	0.0
20110904 07:15	16.9	16.9	16.9	91	15.5	3	6	202	0.0	1010.7	30	0.000	0.0
20110904 07:20	16.9	16.9	16.9	91	15.5	3	6	202	0.0	1010.7	31	0.000	0.0
20110904 07:25	16.9	16.9	16.9	91	15.5	5	6	202	0.0	1010.8	35	0.000	0.0
20110904 07:30	17.0	17.0	17.0	91	15.5	2	5	202	0.0	1011.0	37	0.000	0.0
20110904 07:35	17.1	17.1	17.1	91	15.6	2	6	202	0.0	1011.1	36	0.000	0.0
20110904 07:40	17.1	17.1	17.1	91	15.6	2	5	202	0.0	1011.1	37	0.000	0.0
20110904 07:45	17.2	17.2	17.2	91	15.7	2	5	202	0.0	1011.1	45	0.000	0.0
20110904 07:50	17.3	17.3	17.3	91	15.8	2	5	202	0.0	1011.1	53	0.000	0.0
20110904 07:55	17.4	17.4	17.4	91	15.9	3	6	202	0.0	1011.1	59	0.000	0.0
20110904 08:00	17.6	17.6	17.6	91	16.1	5	11	202	0.0	1011.0	76	0.025	0.0
20110904 08:05	17.7	17.7	17.7	90	16.0	6	11	292	0.0	1011.3	95	0.000	0.0
20110904 08:10	17.8	17.8	17.8	90	16.2	8	16	292	0.0	1011.1	90	0.000	0.0
20110904 08:15	18.0	18.0	18.0	89	16.2	10	18	315	0.0	1011.1	99	0.000	0.4
20110904 08:20	18.2	18.2	18.2	89	16.3	8	18	292	0.0	1010.8	148	0.000	0.5
20110904 08:25	18.4	18.4	18.4	88	16.4	8	16	270	0.0	1010.9	129	0.000	0.6
20110904 08:30	18.6	18.6	18.6	87	16.3	6	16	270	0.0	1011.0	134	0.000	0.6
20110904 08:35	18.7	18.7	18.7	86	16.3	6	11	292	0.0	1011.1	120	0.000	0.7
20110904 08:40	18.8	18.8	18.8	85	16.3	6	13	270	0.0	1011.1	165	0.000	0.8
20110904 08:45	19.0	19.0	19.0	85	16.4	5	10	270	0.0	1011.2	199	0.000	0.9
20110904 08:50	19.2	19.2	19.2	84	16.4	5	13	270	0.0	1011.1	154	0.000	0.9
20110904 08:55	19.4	19.4	19.4	83	16.5	6	14	248	0.0	1011.2	181	0.000	1.0
20110904 09:00	19.7	19.7	19.7	82	16.5	8	14	270	0.0	1011.1	833	0.102	1.1
20110904 09:05	19.9	19.9	19.9	81	16.6	6	14	270	0.0	1011.3	235	0.000	1.1
20110904 09:10	20.3	20.3	20.3	79	16.5	6	14	292	0.0	1011.4	241	0.000	1.1
20110904 09:15	20.6	20.6	20.6	78	16.6	8	14	292	0.0	1011.4	238	0.000	1.2
20110904 09:20	20.9	20.9	20.9	77	16.7	11	19	270	0.0	1011.4	227	0.000	1.3
20110904 09:25	21.0	21.0	21.0	75	16.4	10	16	270	0.0	1011.4	246	0.000	1.4
20110904 09:30	21.1	21.1	21.1	75	16.5	11	21	270	0.0	1011.4	236	0.000	1.5
20110904 09:35	21.2	21.2	21.2	74	16.4	11	21	292	0.0	1011.6	226	0.000	1.6
20110904 09:40	21.3	21.3	21.3	74	16.4	8	16	292	0.0	1011.4	239	0.000	1.6
20110904 09:45	21.3	21.3	21.3	73	16.2	8	18	292	0.0	1011.4	241	0.000	1.6
20110904 09:50	21.3	21.3	21.3	74	16.5	6	11	270	0.0	1011.4	221	0.000	1.5
20110904 09:55	21.3	21.3	21.3	73	16.3	6	11	292	0.0	1011.4	196	0.000	1.4
20110904 10:00	21.3	21.3	21.3	72	16.0	5	11	270	0.0	1011.4	189	0.152	1.4
20110904 10:05	21.2	21.2	21.2	73	16.2	6	11	270	0.0	1011.5	192	0.000	1.4
20110904 10:10	21.2	21.2	21.2	74	16.4	6	14	270	0.0	1011.4	184	0.000	1.3
20110904 10:15	21.2	21.2	21.2	74	16.3	8	13	270	0.0	1011.4	167	0.000	1.3
20110904 10:20	21.1	21.1	21.1	74	16.3	6	11	270	0.0	1011.5	160	0.000	1.3
20110904 10:25	21.1	21.1	21.1	74	16.2	6	10	292	0.0	1011.6	175	0.000	1.4
20110904 10:30	21.1	21.1	21.1	75	16.4	8	11	292	0.0	1011.6	202	0.000	1.7
20110904 10:35	21.1	21.1	21.1	75	16.5	8	11	292	0.0	1011.8	218	0.000	1.8
20110904 10:40	21.1	21.1	21.1	74	16.3	8	14	292	0.0	1011.8	249	0.000	2.1
20110904 10:45	21.2	21.2	21.2	75	16.6	6	10	292	0.0	1011.6	271	0.000	2.3
20110904 10:50	21.3	21.3	21.3	74	16.4	6	11	292	0.0	1011.6	290	0.000	2.6
20110904 10:55	21.5	21.5	21.5	75	16.9	5	14	270	0.0	1011.7	318	0.000	2.8
20110904 11:00	21.7	21.7	21.7	74	16.8	8	16	270	0.0	1011.7	325	0.152	3.0
20110904 11:05	21.7	21.7	21.7	73	16.7	10	18	292	0.0	1011.7	291	0.000	2.9
20110904 11:10	21.7	21.7	21.7	73	16.7	8	16	292	0.0	1011.6	288	0.000	3.0
20110904 11:15	21.7	21.7	21.7	72	16.4	8	11	270	0.0	1011.6	334	0.000	3.3
20110904 11:20	21.8	21.8	21.8	73	16.8	5	8	270	0.0	1011.7	427	0.000	3.8
20110904 11:25	22.0	22.0	22.0	73	16.9	5	13	292	0.0	1011.6	407	0.000	4.6
20110904 11:30	22.3	22.3	22.3	73	17.2	5	8	270	0.0	1011.7	664	0.000	4.9
20110904 11:35	22.6	22.6	22.6	72	17.2	3	8	315	0.0	1011.5	609	0.000	4.8
20110904 11:40	22.7	22.7	22.7	71	17.1	6	14	315	0.0	1011.4	594	0.000	4.9
20110904 11:45	22.8	22.8	22.8	71	17.2	2	6	315	0.0	1011.2	602	0.000	4.9
20110904 11:50	23.0	23.0	23.0	70	17.2	0	5	315	0.0	1011.2	593	0.000	4.9
20110904 11:55	23.2	23.2	23.2	70	17.4	0	6	315	0.0	1011.2	617	0.000	5.1
20110904 12:00	23.3	23.3	23.3	69	17.3	3	8	292	0.0	1011.2	658	0.330	5.3
20110904 12:05	23.4	23.4	23.4	69	17.4	2	5	292	0.0	1011.2	642	0.000	5.4
20110904 12:10	23.6	23.6	23.6	69	17.5	0	2	338	0.0	1011.1	560	0.000	4.8
20110904 12:15	23.7	23.7	23.7	69	17.7	0	3	338	0.0	1011.0	606	0.000	5.1
20110904 12:20	23.8	23.8	23.8	67	17.3	2	8	292	0.0	1010.8	680	0.000	5.6
20110904 12:25	23.9	23.9	24.9	68	17.6	2	8	292	0.0	1010.9	689	0.000	5.7
20110904 12:30	23.8	23.8	23.8	67	17.3	5	10	22	0.0	1010.8	665	0.000	5.7
20110904 12:35	23.6	23.6	23.6	68	17.3	3	8	22	0.0	1010.8	663	0.000	5.7
20110904 12:40	23.6	23.6	23.6	67	17.1	3	8	22	0.0	1010.8	709	0.000	5.8
20110904 12:45	23.9	23.9	24.8	70	18.1	2	8	22	0.0	1010.7	750	0.000	6.2
20110904 12:50	24.1	24.1	25.1	68	17.8	2	10	22	0.0	1010.7	736	0.000	5.9
20110904 12:55	24.4	24.4	25.5	66	17.7	2	6	0	0.0	1010.6	731	0.000	6.0
20110904 13:00	24.8	24.8	25.8	66	18.0	2	6	315	0.0	1010.5	762	0.432	6.0
20110904 13:05	24.7	24.7	25.7	63	17.2	2	8	0	0.0	1010.5	472	0.000	5.4
20110904 13:10	24.7	24.7	25.7	64	17.4	2	8	22	0.0	1010.4	619	0.000	5.8
20110904 13:15	24.6	24.6	25.7	63	17.1	3	6	22	0.0	1010.4	678	0.000	6.2
20110904 13:20	24.6	24.6	25.7	63	17.1	2	10	22	0.0	1010.3	772	0.000	6.5
20110904 13:25	24.7	24.7	25.7	66	17.9	2	6	22	0.0	1010.3	729	0.000	6.2
20110904 13:30	25.0	25.0	26.0	62	17.2	3	8	270	0.0	1010.4	712	0.000	6.0
20110904 13:35	25.3	25.3	26.3	62	17.5	3	6	292	0.0	1010.2	703	0.000	6.0
20110904 13:40	25.5	25.5	26.5	61	17.4	2	5	292	0.0	1010.1	479	0.000	5.3
20110904 13:45	25.5	25.5	26.4	60	17.2	2	6	292	0.0	1010.0	409	0.000	4.9
20110904 13:50	25.4	25.4	26.4	61	17.4	2	5	292	0.0	1010.0	295	0.000	5.1
20110904 13:55	25.6	25.6	26.6	61	17.5	2	6	248	0.0	1010.0	731	0.000	6.0
20110904 14:00	25.8	25.8	26.8	60	17.5	0	5	248	0.0	1010.0	342	0.406	4.1
20110904 14:05	25.8	25.8	26.8	60	17.5	0	5	248	0.0	1009.8	378	0.000	4.2
20110904 14:10	25.9	25.9	26.9	61	17.8	2	5	45	0.0	1009.7	738	0.000	6.0
20110904 14:15	25.9	25.9	26.8	59	17.3	3	8	45	0.0	1009.6	730	0.000	5.9
20110904 14:20	25.9	25.9	26.8	59	17.3	2	6	68	0.0	1009.6	713	0.000	5.7
20110904 14:25	26.0	26.0	26.9	58	17.1	2	8	112	0.0	1009.5	550	0.000	5.0
20110904 14:30	25.9	25.9	26.8	59	17.3	3	8	112	0.0	1009.4	645	0.000	5.3
20110904 14:35	26.1	26.1	26.9	59	17.4	5	10	45	0.0	1009.3	635	0.000	4.8
20110904 14:40	26.1	26.1	27.0	60	17.7	3	10	68	0.0	1009.2	643	0.000	5.1
20110904 14:45	26.1	26.1	26.9	58	17.1	3	6	90	0.0	1009.3	662	0.000	5.1
20110904 14:50	26.1	26.1	26.9	58	17.1	5	8	68	0.0	1009.3	213	0.000	3.3
20110904 14:55	25.9	25.9	26.8	59	17.3	3	10	90	0.0	1009.2	246	0.000	3.0
20110904 15:00	25.8	25.8	26.7	61	17.7	3	10	68	0.0	1009.3	287	0.356	3.1
20110904 15:05	25.7	25.7	26.6	60	17.3	5	10	68	0.0	1009.2	311	0.000	3.1
20110904 15:10	25.7	25.7	26.6	60	17.3	3	6	68	0.0	1009.2	311	0.000	3.0
20110904 15:15	25.7	25.7	26.6	59	17.1	2	5	90	0.0	1009.3	291	0.000	2.8
20110904 15:20	25.7	25.7	26.6	59	17.0	2	8	135	0.0	1009.3	272	0.000	2.5
20110904 15:25	25.6	25.6	26.5	58	16.7	5	8	45	0.0	1009.2	282	0.000	2.6
20110904 15:30	25.6	25.6	26.5	59	16.9	3	8	68	0.0	1009.2	295	0.000	2.5
20110904 15:35	25.6	25.6	26.5	58	16.7	3	8	68	0.0	1009.0	347	0.000	2.8
20110904 15:40	25.7	25.7	26.6	60	17.4	2	6	68	0.0	1009.0	347	0.000	2.9
20110904 15:45	25.8	25.8	26.7	59	17.1	3	6	90	0.0	1008.9	345	0.000	2.8
20110904 15:50	25.8	25.8	26.8	61	17.7	5	10	68	0.0	1008.7	410	0.000	3.2
20110904 15:55	25.9	25.9	26.9	60	17.6	5	10	68	0.0	1008.5	699	0.000	3.9
20110904 16:00	26.4	26.4	27.3	59	17.7	6	11	90	0.0	1008.4	625	0.254	3.5
20110904 16:05	26.4	26.4	27.4	60	18.0	3	10	90	0.0	1008.3	218	0.000	2.5
20110904 16:10	26.2	26.2	27.2	60	17.8	6	11	90	0.0	1008.1	303	0.000	2.5
20110904 16:15	26.1	26.1	27.1	61	18.0	6	11	68	0.0	1008.1	486	0.000	2.8
20110904 16:20	26.2	26.2	27.2	62	18.3	8	19	68	0.0	1008.0	499	0.000	2.8
20110904 16:25	26.2	26.2	27.3	62	18.4	8	16	45	0.0	1007.9	331	0.000	2.4
20110904 16:30	26.1	26.1	27.0	60	17.7	8	16	68	0.0	1007.8	238	0.000	2.0
20110904 16:35	25.9	25.9	26.9	61	17.8	6	13	68	0.0	1007.8	209	0.000	1.9
20110904 16:40	25.9	25.9	26.8	61	17.8	3	10	112	0.0	1007.8	269	0.000	2.1
20110904 16:45	25.9	25.9	26.9	61	17.8	8	11	68	0.0	1007.7	393	0.000	2.0
20110904 16:50	25.9	25.9	26.9	60	17.6	6	16	68	0.0	1007.6	272	0.000	1.8
20110904 16:55	25.9	25.9	26.9	61	17.8	6	14	90	0.0	1007.5	282	0.000	1.6
20110904 17:00	25.9	25.9	27.0	63	18.3	6	11	68	0.0	1007.3	237	0.254	1.4
20110904 17:05	25.8	25.8	26.8	63	18.2	8	16	68	0.0	1007.1	245	0.000	1.4
20110904 17:10	25.7	25.7	26.8	64	18.4	6	11	68	0.0	1007.2	267	0.000	1.4
20110904 17:15	25.7	25.7	26.7	65	18.6	8	16	68	0.0	1007.3	253	0.000	1.3
20110904 17:20	25.6	25.6	26.7	66	18.8	8	14	68	0.0	1007.1	223	0.000	1.2
20110904 17:25	25.5	25.5	26.5	66	18.7	8	13	68	0.0	1007.1	203	0.000	1.1
20110904 17:30	25.4	25.4	26.4	64	18.1	6	13	68	0.0	1007.0	183	0.000	1.0
20110904 17:35	25.3	25.3	26.3	65	18.3	5	11	68	0.0	1007.0	144	0.000	0.9
20110904 17:40	25.2	25.2	26.2	66	18.4	5	10	68	0.0	1007.0	133	0.000	0.8
20110904 17:45	25.1	25.1	26.1	67	18.5	6	13	68	0.0	1006.8	130	0.000	0.7
20110904 17:50	25.0	25.0	26.0	68	18.7	5	11	68	0.0	1007.0	127	0.000	0.7
20110904 17:55	24.9	24.9	25.9	69	18.9	3	8	90	0.0	1007.0	145	0.000	0.6
20110904 18:00	24.9	24.9	25.9	69	18.8	5	11	90	0.0	1006.9	163	0.152	0.6
20110904 18:05	24.9	24.9	25.9	68	18.6	5	11	90	0.0	1007.0	134	0.000	0.6
20110904 18:10	24.8	24.8	25.8	68	18.5	5	11	90	0.0	1007.0	109	0.000	0.4
20110904 18:15	24.8	24.8	25.7	69	18.7	5	10	68	0.0	1007.1	71	0.000	0.0
20110904 18:20	24.6	24.6	25.6	68	18.3	5	10	68	0.0	1007.2	34	0.000	0.0
20110904 18:25	24.5	24.5	25.4	69	18.4	3	6	68	0.0	1007.1	-100000	0.000	0.0
20110904 18:30	24.3	24.3	25.2	70	18.5	2	5	45	0.0	1007.1	11	0.000	0.0
20110904 18:35	24.2	24.2	25.1	70	18.3	2	6	68	0.0	1007.1	12	0.000	0.0
20110904 18:40	24.1	24.1	25.0	71	18.5	3	6	68	0.0	1007.3	12	0.000	0.0
20110904 18:45	23.9	23.9	24.8	72	18.6	3	10	68	0.0	1007.3	12	0.000	0.0
20110904 18:50	23.8	23.8	23.8	72	18.5	2	5	68	0.0	1007.4	10	0.000	0.0
20110904 18:55	23.7	23.7	23.7	73	18.6	0	3	68	0.0	1007.5	8	0.000	0.0
20110904 19:00	23.6	23.6	23.6	74	18.6	0	3	68	0.0	1007.5	7	0.051	0.0
20110904 19:05	23.4	23.4	23.4	75	18.8	0	2	68	0.0	1007.5	5	0.000	0.0
20110904 19:10	23.3	23.3	23.3	76	18.9	0	2	68	0.0	1007.5	5	0.000	0.0
20110904 19:15	23.2	23.2	23.2	77	19.0	0	2	68	0.0	1007.6	5	0.000	0.0
20110904 19:20	23.2	23.2	23.2	79	19.3	0	0	-100000	0.0	1007.5	5	0.000	0.0
20110904 19:25	23.0	23.0	23.0	79	19.2	0	2	68	0.0	1007.5	3	0.000	0.0
20110904 19:30	22.8	22.8	22.8	79	19.0	0	0	-100000	0.2	1007.6	0	0.000	0.0
20110904 19:35	22.7	22.7	22.7	81	19.2	0	2	68	0.0	1007.5	0	0.000	0.0
20110904 19:40	22.5	22.5	22.5	81	19.1	0	0	-100000	0.0	1007.5	0	0.000	0.0
20110904 19:45	22.3	22.3	22.3	83	19.3	0	2	68	0.0	1007.5	0	0.000	0.0
20110904 19:50	22.1	22.1	22.1	84	19.3	2	6	68	0.0	1007.3	0	0.000	0.0
20110904 19:55	21.9	21.9	21.9	85	19.2	2	6	68	0.0	1007.3	0	0.000	0.0
20110904 20:00	21.7	21.7	21.7	85	19.1	0	2	68	0.0	1007.5	0	0.000	0.0
20110904 20:05	21.6	21.6	21.6	86	19.2	0	2	68	0.2	1007.3	0	0.000	0.0
20110904 20:10	21.4	21.4	21.4	86	19.0	0	3	68	0.0	1007.3	0	0.000	0.0
20110904 20:15	21.3	21.3	21.3	87	19.1	0	3	68	0.0	1007.3	0	0.000	0.0
20110904 20:20	21.3	21.3	21.3	87	19.0	2	5	68	0.0	1007.4	0	0.000	0.0
20110904 20:25	21.2	21.2	21.2	87	18.9	2	5	68	0.0	1007.5	0	0.000	0.0
20110904 20:30	21.1	21.1	21.1	88	19.0	0	2	68	0.0	1007.6	0	0.000	0.0
20110904 20:35	21.1	21.1	21.1	88	19.0	0	2	68	0.0	1007.7	0	0.000	0.0
20110904 20:40	21.1	21.1	21.1	88	19.0	0	2	68	0.0	1007.9	0	0.000	0.0
20110904 20:45	21.1	21.1	21.1	88	19.0	5	11	270	0.0	1008.1	0	0.000	0.0
20110904 20:50	21.0	21.0	21.0	88	18.9	6	11	270	0.0	1008.2	0	0.000	0.0
20110904 20:55	20.9	20.9	20.9	88	18.8	5	11	270	0.0	1008.1	0	0.000	0.0
20110904 21:00	20.8	20.8	20.8	89	18.9	2	8	270	0.0	1008.1	0	0.025	0.0
20110904 21:05	20.8	20.8	20.8	89	18.9	5	10	270	0.0	1008.0	0	0.000	0.0
20110904 21:10	20.8	20.8	20.8	89	18.9	6	11	292	0.0	1008.0	0	0.000	0.0
20110904 21:15	20.7	20.7	20.7	89	18.8	3	8	292	0.0	1007.9	0	0.000	0.0
20110904 21:20	20.7	20.7	20.7	89	18.8	5	13	292	0.0	1008.0	0	0.000	0.0
20110904 21:25	20.5	20.5	20.5	88	18.4	6	11	292	0.0	1008.0	0	0.000	0.0
20110904 21:30	20.4	20.4	20.4	88	18.3	5	11	292	0.0	1008.0	0	0.000	0.0
20110904 21:35	20.3	20.3	20.3	88	18.2	6	11	270	0.0	1007.9	0	0.000	0.0
20110904 21:40	20.1	20.1	20.1	87	17.8	6	13	292	0.0	1007.8	0	0.000	0.0
20110904 21:45	19.9	19.9	19.9	87	17.7	5	8	292	0.0	1007.8	0	0.000	0.0
20110904 21:50	19.8	19.8	19.8	87	17.6	3	8	270	0.0	1007.8	0	0.000	0.0
20110904 21:55	19.7	19.7	19.7	87	17.5	2	6	270	0.0	1007.9	0	0.000	0.0
20110904 22:00	19.7	19.7	19.7	88	17.6	3	6	270	0.0	1008.2	0	0.025	0.0
20110904 22:05	19.6	19.6	19.6	88	17.6	5	14	270	0.0	1008.2	0	0.000	0.0
20110904 22:10	19.6	19.6	19.6	88	17.5	10	14	248	0.0	1008.4	0	0.000	0.0
20110904 22:15	19.4	19.4	19.4	88	17.4	14	24	270	0.0	1008.5	0	0.000	0.0
20110904 22:20	19.4	19.4	19.4	88	17.3	13	24	270	0.0	1008.4	0	0.000	0.0
20110904 22:25	19.3	19.3	19.3	88	17.3	11	19	270	0.0	1008.3	0	0.000	0.0
20110904 22:30	19.3	19.3	19.3	89	17.4	8	14	270	0.0	1008.4	0	0.000	0.0
20110904 22:35	19.2	19.2	19.2	89	17.4	5	11	292	0.0	1008.5	0	0.000	0.0
20110904 22:40	19.2	19.2	19.2	89	17.4	6	14	248	0.0	1008.6	0	0.000	0.0
20110904 22:45	19.2	19.2	19.2	89	17.3	10	19	270	0.0	1008.7	0	0.000	0.0
20110904 22:50	19.1	19.1	19.1	89	17.3	10	16	270	0.0	1008.8	0	0.000	0.0
20110904 22:55	19.1	19.1	19.1	89	17.2	10	16	270	0.0	1008.8	0	0.000	0.0
20110904 23:00	19.0	19.0	19.0	90	17.3	6	11	292	0.0	1008.8	0	0.025	0.0
20110904 23:05	19.0	19.0	19.0	90	17.3	8	16	292	0.0	1008.6	0	0.000	0.0
20110904 23:10	18.9	18.9	18.9	90	17.3	11	19	270	0.0	1008.5	0	0.000	0.0
20110904 23:15	18.9	18.9	18.9	90	17.2	8	11	292	0.0	1008.6	0	0.000	0.0
20110904 23:20	18.9	18.9	18.9	90	17.2	6	13	270	0.0	1008.6	0	0.000	0.0
20110904 23:25	18.9	18.9	18.9	90	17.2	6	11	292	0.0	1008.5	0	0.000	0.0
20110904 23:30	18.9	18.9	18.9	91	17.4	5	14	248	0.0	1008.6	0	0.000	0.0
20110904 23:35	18.8	18.8	18.8	91	17.3	5	10	248	0.0	1008.6	0	0.000	0.0
20110904 23:40	18.8	18.8	18.8	91	17.3	5	11	270	0.0	1008.5	0	0.000	0.0
20110904 23:45	18.8	18.8	18.8	91	17.3	5	10	270	0.0	1008.5	0	0.000	0.0
20110904 23:50	18.8	18.8	18.8	91	17.3	8	14	270	0.0	1008.6	0	0.000	0.0
20110904 23:55	18.8	18.8	18.8	91	17.3	5	11	248	0.0	1008.6	0	0.000	0.0



Please note the license to use and transfer of this data:
http://creativecommons.org/licenses/by-nc-sa/3.0/deed.en

Bitte beachten sie die Lizenz zur Verwertung und Weitergabe der Daten:
http://creativecommons.org/licenses/by-nc-sa/3.0/deed.de

zurück zur Übersicht der Archivdaten (Monats und Tagesdaten)

Cookies helfen bei der Bereitstellung von Inhalten. Durch die Nutzung dieser Seiten erklärst du dich damit einverstanden, dass Cookies auf deinem Rechner gespeichert werden. Weitere Information